createdAt,value
2023-04-19T00:03:03.092Z,87.89
2023-04-19T00:06:08.276Z,88.15
2023-04-19T00:09:12.278Z,87.89
2023-04-19T00:12:14.956Z,88.14
2023-04-19T00:15:17.603Z,87.27
2023-04-19T00:18:20.254Z,86.71
2023-04-19T00:21:22.924Z,87.65
2023-04-19T00:24:26.979Z,87.94
2023-04-19T00:27:29.615Z,87.00
2023-04-19T00:30:32.274Z,88.23
2023-04-19T00:33:35.082Z,87.34
2023-04-19T00:36:37.804Z,87.25
2023-04-19T00:39:42.000Z,87.08
2023-04-19T00:42:44.604Z,88.20
2023-04-19T00:45:49.068Z,87.70
2023-04-19T00:48:51.968Z,88.43
2023-04-19T00:51:54.983Z,87.59
2023-04-19T00:54:59.465Z,86.32
2023-04-19T00:58:02.219Z,85.95
2023-04-19T01:01:06.265Z,85.95
2023-04-19T01:04:09.684Z,85.58
2023-04-19T01:07:12.476Z,85.39
2023-04-19T01:10:16.503Z,84.15
2023-04-19T01:13:19.211Z,84.12
2023-04-19T01:16:21.876Z,84.45
2023-04-19T01:19:24.577Z,83.58
2023-04-19T01:22:30.025Z,83.88
2023-04-19T01:25:32.737Z,84.42
2023-04-19T01:28:35.418Z,84.16
2023-04-19T01:31:38.121Z,84.54
2023-04-19T01:34:41.937Z,83.77
2023-04-19T01:37:46.082Z,82.93
2023-04-19T01:40:48.767Z,83.64
2023-04-19T01:43:51.387Z,83.61
2023-04-19T01:46:54.996Z,84.29
2023-04-19T01:49:57.714Z,84.00
2023-04-19T01:53:01.752Z,85.19
2023-04-19T01:56:04.496Z,84.03
2023-04-19T01:59:07.162Z,84.42
2023-04-19T02:02:10.213Z,84.08
2023-04-19T02:05:13.099Z,85.16
2023-04-19T02:08:17.080Z,85.39
2023-04-19T02:11:19.842Z,84.33
2023-04-19T02:14:22.516Z,86.07
2023-04-19T02:17:25.804Z,84.64
2023-04-19T02:20:28.560Z,86.18
2023-04-19T02:23:32.579Z,85.79
2023-04-19T02:26:35.221Z,85.61
2023-04-19T02:29:38.828Z,85.71
2023-04-19T02:32:41.476Z,85.10
2023-04-19T02:35:44.120Z,86.44
2023-04-19T02:38:48.120Z,87.37
2023-04-19T02:41:51.010Z,87.22
2023-04-19T02:44:53.668Z,87.13
2023-04-19T02:47:56.532Z,86.38
2023-04-19T02:50:59.265Z,87.97
2023-04-19T02:54:03.260Z,87.40
2023-04-19T02:57:06.027Z,87.68
2023-04-19T03:00:10.360Z,87.68
2023-04-19T03:03:13.201Z,89.08
2023-04-19T03:06:16.830Z,88.22
2023-04-19T03:09:20.818Z,89.66
2023-04-19T03:12:23.485Z,88.71
2023-04-19T03:15:26.295Z,89.82
2023-04-19T03:18:29.695Z,89.99
2023-04-19T03:21:32.345Z,89.42
2023-04-19T03:24:38.030Z,90.54
2023-04-19T03:27:41.124Z,90.17
2023-04-19T03:30:43.784Z,89.86
2023-04-19T03:33:46.405Z,90.58
2023-04-19T03:36:49.130Z,90.96
2023-04-19T03:39:53.184Z,90.92
2023-04-19T03:42:55.842Z,91.12
2023-04-19T03:45:58.504Z,91.19
2023-04-19T03:49:01.188Z,90.23
2023-04-19T03:52:03.845Z,90.91
2023-04-19T03:55:09.219Z,91.60
2023-04-19T03:58:11.947Z,91.74
2023-04-19T04:01:19.532Z,90.89
2023-04-19T04:04:22.689Z,91.83
2023-04-19T04:07:25.827Z,90.72
2023-04-19T04:10:29.840Z,91.71
2023-04-19T04:13:32.529Z,92.19
2023-04-19T04:16:35.183Z,90.53
2023-04-19T04:19:37.808Z,91.99
2023-04-19T04:22:42.816Z,91.80
2023-04-19T04:25:47.476Z,91.46
2023-04-19T04:28:50.701Z,92.62
2023-04-19T04:31:53.422Z,92.27
2023-04-19T04:34:56.126Z,92.45
2023-04-19T04:37:59.563Z,92.56
2023-04-19T04:41:03.625Z,93.21
2023-04-19T04:44:12.535Z,93.14
2023-04-19T04:47:26.158Z,93.25
2023-04-19T04:50:28.900Z,93.91
2023-04-19T04:53:31.528Z,93.28
2023-04-19T04:56:35.875Z,93.34
2023-04-19T04:59:38.638Z,92.68
2023-04-19T05:02:41.448Z,93.82
2023-04-19T05:05:45.181Z,93.29
2023-04-19T05:08:48.041Z,92.61
2023-04-19T05:11:52.103Z,92.34
2023-04-19T05:14:54.810Z,93.01
2023-04-19T05:17:57.462Z,91.98
2023-04-19T05:21:00.346Z,91.97
2023-04-19T05:24:03.067Z,91.21
2023-04-19T05:27:07.075Z,90.75
2023-04-19T05:30:10.082Z,91.61
2023-04-19T05:33:12.717Z,91.75
2023-04-19T05:36:15.385Z,90.92
2023-04-19T05:39:18.041Z,90.50
2023-04-19T05:42:22.053Z,88.94
2023-04-19T05:45:25.322Z,90.03
2023-04-19T05:48:27.937Z,89.20
2023-04-19T05:51:31.791Z,87.09
2023-04-19T05:54:35.943Z,85.59
2023-04-19T05:57:40.069Z,86.42
2023-04-19T06:00:42.765Z,82.46
2023-04-19T06:03:45.816Z,82.42
2023-04-19T06:06:48.581Z,80.50
2023-04-19T06:09:51.241Z,79.98
2023-04-19T06:12:55.249Z,78.67
2023-04-19T06:15:58.743Z,76.94
2023-04-19T06:19:02.218Z,77.42
2023-04-19T06:22:04.901Z,77.25
2023-04-19T06:25:08.057Z,72.74
2023-04-19T06:28:12.057Z,72.06
2023-04-19T06:31:14.752Z,71.17
2023-04-19T06:34:17.483Z,71.56
2023-04-19T06:37:20.302Z,69.86
2023-04-19T06:40:23.036Z,69.30
2023-04-19T06:43:27.091Z,69.87
2023-04-19T06:46:29.761Z,67.23
2023-04-19T06:49:32.719Z,66.96
2023-04-19T06:52:35.389Z,66.11
2023-04-19T06:55:38.016Z,65.99
2023-04-19T06:58:42.040Z,63.63
2023-04-19T07:01:44.965Z,64.08
2023-04-19T07:04:48.287Z,63.81
2023-04-19T07:07:51.545Z,65.60
2023-04-19T07:10:54.212Z,61.85
2023-04-19T07:13:59.590Z,62.20
2023-04-19T07:17:02.267Z,62.29
2023-04-19T07:20:06.468Z,60.96
2023-04-19T07:23:09.047Z,62.16
2023-04-19T07:26:11.800Z,59.98
2023-04-19T07:29:15.988Z,58.90
2023-04-19T07:32:18.817Z,58.95
2023-04-19T07:35:21.975Z,57.21
2023-04-19T07:38:24.809Z,57.25
2023-04-19T07:41:27.496Z,59.42
2023-04-19T07:44:31.586Z,59.62
2023-04-19T07:47:34.326Z,59.14
2023-04-19T07:50:37.817Z,57.19
2023-04-19T07:53:41.778Z,56.70
2023-04-19T07:56:44.375Z,54.17
2023-04-19T07:59:48.384Z,54.67
2023-04-19T08:02:51.266Z,54.98
2023-04-19T08:05:54.500Z,55.57
2023-04-19T08:08:57.299Z,53.16
2023-04-19T08:11:59.912Z,51.34
2023-04-19T08:15:19.719Z,51.94
2023-04-19T08:18:26.935Z,52.33
2023-04-19T08:21:38.384Z,52.16
2023-04-19T08:24:43.765Z,51.95
2023-04-19T08:27:46.436Z,50.76
2023-04-19T08:30:50.480Z,50.49
2023-04-19T08:33:53.229Z,48.77
2023-04-19T08:37:03.579Z,48.68
2023-04-19T08:40:08.502Z,47.55
2023-04-19T08:43:11.096Z,46.85
2023-04-19T08:46:15.824Z,47.52
2023-04-19T08:49:21.037Z,46.71
2023-04-19T08:52:25.145Z,45.78
2023-04-19T08:55:29.400Z,46.29
2023-04-19T08:58:50.296Z,44.87
2023-04-19T09:01:59.133Z,44.62
2023-04-19T09:05:02.044Z,43.13
2023-04-19T09:08:23.596Z,42.82
2023-04-19T09:11:37.500Z,43.14
2023-04-19T09:14:57.797Z,41.75
2023-04-19T09:18:07.902Z,41.29
2023-04-19T09:21:10.797Z,40.33
2023-04-19T09:24:13.448Z,40.42
2023-04-19T09:27:20.720Z,40.18
2023-04-19T09:30:32.487Z,38.53
2023-04-19T09:33:39.674Z,37.99
2023-04-19T09:36:42.873Z,37.46
2023-04-19T09:39:45.620Z,37.63
2023-04-19T09:45:53.965Z,35.44
2023-04-19T09:49:25.274Z,34.24
2023-04-19T09:52:33.723Z,34.43
2023-04-19T09:55:52.423Z,34.73
2023-04-19T09:59:08.773Z,31.22
2023-04-19T10:02:25.493Z,33.04
2023-04-19T10:05:30.286Z,30.77
2023-04-19T10:08:33.732Z,31.03
2023-04-19T10:11:39.424Z,31.24
2023-04-19T10:14:43.585Z,31.71
2023-04-19T10:17:46.661Z,31.24
2023-04-19T10:20:56.588Z,30.46
2023-04-19T10:24:00.574Z,29.63
2023-04-19T10:27:11.518Z,29.78
2023-04-19T10:30:21.666Z,27.45
2023-04-19T10:33:28.840Z,26.52
2023-04-19T10:36:33.740Z,25.29
2023-04-19T10:39:44.279Z,26.42
2023-04-19T10:43:17.700Z,25.40
2023-04-19T10:46:40.081Z,26.52
2023-04-19T10:49:46.938Z,25.54
2023-04-19T10:52:50.987Z,25.84
2023-04-19T10:55:53.603Z,26.23
2023-04-19T10:59:23.457Z,25.84
2023-04-19T11:02:30.731Z,25.63
2023-04-19T11:06:16.514Z,25.04
2023-04-19T11:09:24.650Z,25.52
2023-04-19T11:12:27.946Z,25.81
2023-04-19T11:15:30.613Z,24.90
2023-04-19T11:18:33.324Z,26.01
2023-04-19T11:21:41.024Z,26.57
2023-04-19T11:24:48.200Z,27.18
2023-04-19T11:27:52.943Z,26.01
2023-04-19T11:30:56.665Z,26.30
2023-04-19T11:33:59.945Z,26.94
2023-04-19T11:37:02.612Z,26.51
2023-04-19T11:40:09.126Z,26.63
2023-04-19T11:43:11.884Z,26.35
2023-04-19T11:46:15.107Z,26.03
2023-04-19T11:49:27.209Z,26.29
2023-04-19T11:52:29.860Z,26.01
2023-04-19T11:55:35.921Z,26.77
2023-04-19T11:58:40.168Z,25.85
2023-04-19T12:01:42.798Z,25.10
2023-04-19T12:04:45.832Z,25.76
2023-04-19T12:08:02.812Z,26.63
2023-04-19T12:11:07.625Z,27.55
2023-04-19T12:14:10.607Z,25.24
2023-04-19T12:17:15.764Z,25.51
2023-04-19T12:20:30.168Z,25.43
2023-04-19T12:23:32.831Z,24.85
2023-04-19T12:26:37.624Z,25.14
2023-04-19T12:29:40.396Z,23.60
2023-04-19T12:32:43.132Z,23.40
2023-04-19T12:35:45.892Z,24.75
2023-04-19T12:38:48.569Z,26.58
2023-04-19T12:41:52.584Z,25.00
2023-04-19T12:44:55.235Z,25.14
2023-04-19T12:47:57.954Z,24.43
2023-04-19T12:51:01.315Z,25.10
2023-04-19T12:54:04.106Z,24.11
2023-04-19T12:57:08.102Z,25.79
2023-04-19T13:00:12.489Z,25.49
2023-04-19T13:03:15.385Z,23.71
2023-04-19T13:06:18.322Z,25.27
2023-04-19T13:09:21.001Z,23.45
2023-04-19T13:12:25.196Z,25.72
2023-04-19T13:15:28.505Z,26.03
2023-04-19T13:18:31.337Z,24.90
2023-04-19T13:21:34.004Z,25.06
2023-04-19T13:24:36.659Z,23.77
2023-04-19T13:27:40.713Z,23.80
2023-04-19T13:30:43.434Z,24.66
2023-04-19T13:33:46.390Z,24.49
2023-04-19T13:36:49.135Z,24.81
2023-04-19T13:39:51.801Z,24.73
2023-04-19T13:42:56.727Z,25.10
2023-04-19T13:45:59.397Z,25.83
2023-04-19T13:49:01.999Z,26.86
2023-04-19T13:52:04.643Z,27.33
2023-04-19T13:55:07.736Z,25.70
2023-04-19T13:58:11.804Z,26.75
2023-04-19T14:01:14.538Z,26.38
2023-04-19T14:04:17.700Z,27.56
2023-04-19T14:07:20.916Z,27.38
2023-04-19T14:10:23.642Z,26.27
2023-04-19T14:13:28.043Z,27.27
2023-04-19T14:16:30.817Z,27.58
2023-04-19T14:19:33.514Z,27.42
2023-04-19T14:22:36.193Z,28.54
2023-04-19T14:25:38.837Z,29.08
2023-04-19T14:28:42.868Z,29.66
2023-04-19T14:31:45.626Z,29.48
2023-04-19T14:34:48.313Z,29.60
2023-04-19T14:37:51.019Z,29.83
2023-04-19T14:40:53.697Z,29.61
2023-04-19T14:43:57.706Z,30.59
2023-04-19T14:47:00.408Z,31.47
2023-04-19T14:50:03.787Z,29.93
2023-04-19T14:53:06.418Z,30.11
2023-04-19T14:56:09.582Z,29.46
2023-04-19T14:59:13.889Z,30.60
2023-04-19T15:02:16.894Z,30.01
2023-04-19T15:05:19.915Z,30.07
2023-04-19T15:08:30.112Z,29.54
2023-04-19T15:11:33.477Z,30.68
2023-04-19T15:14:37.585Z,29.99
2023-04-19T15:17:40.653Z,30.24
2023-04-19T15:20:43.566Z,30.56
2023-04-19T15:23:46.242Z,29.84
2023-04-19T15:26:48.975Z,30.60
2023-04-19T15:29:53.022Z,30.33
2023-04-19T15:32:55.717Z,28.94
2023-04-19T15:35:59.357Z,28.54
2023-04-19T15:39:02.161Z,28.72
2023-04-19T15:42:05.143Z,27.97
2023-04-19T15:45:10.284Z,27.55
2023-04-19T15:48:13.040Z,27.99
2023-04-19T15:51:16.119Z,29.44
2023-04-19T15:54:21.485Z,27.93
2023-04-19T15:57:24.138Z,27.12
2023-04-19T16:00:28.481Z,27.88
2023-04-19T16:03:31.407Z,27.32
2023-04-19T16:06:34.213Z,28.32
2023-04-19T16:09:36.893Z,28.98
2023-04-19T16:12:39.762Z,27.88
2023-04-19T16:15:44.704Z,28.02
2023-04-19T16:18:47.945Z,27.31
2023-04-19T16:21:50.639Z,28.48
2023-04-19T16:24:53.322Z,28.57
2023-04-19T16:27:56.048Z,28.70
2023-04-19T16:31:00.113Z,29.49
2023-04-19T16:34:02.790Z,30.75
2023-04-19T16:37:05.514Z,29.83
2023-04-19T16:40:10.392Z,29.83
2023-04-19T16:43:13.025Z,29.95
2023-04-19T16:46:17.157Z,30.02
2023-04-19T16:49:20.659Z,31.08
2023-04-19T16:52:23.340Z,31.13
2023-04-19T16:55:26.100Z,30.70
2023-04-19T16:58:28.777Z,30.17
2023-04-19T17:01:32.806Z,30.61
2023-04-19T17:04:35.913Z,32.33
2023-04-19T17:07:38.704Z,33.37
2023-04-19T17:10:41.389Z,33.84
2023-04-19T17:13:44.011Z,33.98
2023-04-19T17:16:48.028Z,35.57
2023-04-19T17:19:50.693Z,34.54
2023-04-19T17:22:53.339Z,34.94
2023-04-19T17:25:55.991Z,36.16
2023-04-19T17:29:01.218Z,35.60
2023-04-19T17:32:08.339Z,36.79
2023-04-19T17:35:11.048Z,36.30
2023-04-19T17:38:13.770Z,37.59
2023-04-19T17:41:17.034Z,36.25
2023-04-19T17:44:19.844Z,36.38
2023-04-19T17:47:23.902Z,38.13
2023-04-19T17:50:27.192Z,38.03
2023-04-19T17:53:29.991Z,38.02
2023-04-19T17:56:32.658Z,37.65
2023-04-19T17:59:44.204Z,38.51
2023-04-19T18:02:48.491Z,38.13
2023-04-19T18:05:51.247Z,39.66
2023-04-19T18:08:53.953Z,38.53
2023-04-19T18:11:57.797Z,40.31
2023-04-19T18:15:00.469Z,39.61
2023-04-19T18:18:04.739Z,40.25
2023-04-19T18:21:08.232Z,41.06
2023-04-19T18:24:11.113Z,40.41
2023-04-19T18:27:13.933Z,39.75
2023-04-19T18:30:16.670Z,40.66
2023-04-19T18:33:20.697Z,40.88
2023-04-19T18:36:23.901Z,41.24
2023-04-19T18:39:26.570Z,41.16
2023-04-19T18:42:29.218Z,41.62
2023-04-19T18:45:33.334Z,41.14
2023-04-19T18:48:37.518Z,41.61
2023-04-19T18:51:40.157Z,41.55
2023-04-19T18:54:42.800Z,41.29
2023-04-19T18:57:45.420Z,41.89
2023-04-19T19:00:49.314Z,42.55
2023-04-19T19:04:23.504Z,42.06
2023-04-19T19:07:34.331Z,42.78
2023-04-19T19:11:12.877Z,42.52
2023-04-19T19:14:01.653Z,42.81
2023-04-19T19:17:06.181Z,42.52
2023-04-19T19:20:11.271Z,43.74
2023-04-19T19:23:14.598Z,44.34
2023-04-19T19:26:17.340Z,44.06
2023-04-19T19:29:22.558Z,44.23
2023-04-19T19:32:25.711Z,43.69
2023-04-19T19:35:29.961Z,44.10
2023-04-19T19:38:32.808Z,43.91
2023-04-19T19:44:41.617Z,44.63
2023-04-19T19:47:46.066Z,44.22
2023-04-19T19:53:58.192Z,43.92
2023-04-19T19:57:57.294Z,44.86
2023-04-19T20:00:42.820Z,44.32
2023-04-19T20:03:47.444Z,44.92
2023-04-19T20:09:57.678Z,45.69
2023-04-19T20:13:01.403Z,46.65
2023-04-19T20:16:04.334Z,46.73
2023-04-19T20:19:09.847Z,47.18
2023-04-19T20:22:14.163Z,47.14
2023-04-19T20:25:17.017Z,47.58
2023-04-19T20:28:19.860Z,48.25
2023-04-19T20:31:24.001Z,48.83
2023-04-19T20:34:26.863Z,51.02
2023-04-19T20:37:30.913Z,54.75
2023-04-19T20:40:33.615Z,58.37
2023-04-19T20:43:36.386Z,60.07
2023-04-19T20:46:39.074Z,60.83
2023-04-19T20:49:41.852Z,61.17
2023-04-19T20:52:45.914Z,60.04
2023-04-19T20:55:48.614Z,58.31
2023-04-19T20:58:51.338Z,57.12
2023-04-19T21:01:53.975Z,56.66
2023-04-19T21:04:56.592Z,55.38
2023-04-19T21:08:00.612Z,54.54
2023-04-19T21:11:03.286Z,53.77
2023-04-19T21:14:06.122Z,52.92
2023-04-19T21:17:08.821Z,52.86
2023-04-19T21:20:14.100Z,52.27
2023-04-19T21:23:18.340Z,50.52
2023-04-19T21:26:21.087Z,48.96
2023-04-19T21:29:25.067Z,49.62
2023-04-19T21:32:28.674Z,48.87
2023-04-19T21:35:31.367Z,48.19
2023-04-19T21:38:35.711Z,47.49
2023-04-19T21:41:38.623Z,47.91
2023-04-19T21:44:41.274Z,47.42
2023-04-19T21:47:43.940Z,47.33
2023-04-19T21:50:46.644Z,46.83
2023-04-19T21:53:50.678Z,47.91
2023-04-19T21:56:53.412Z,45.53
2023-04-19T21:59:56.282Z,45.52
2023-04-19T22:02:59.162Z,45.60
2023-04-19T22:06:02.164Z,45.41
2023-04-19T22:09:06.385Z,45.66
2023-04-19T22:12:11.529Z,45.62
2023-04-19T22:15:14.643Z,50.90
2023-04-19T22:18:17.337Z,57.86
2023-04-19T22:21:20.002Z,60.70
2023-04-19T22:24:24.136Z,61.03
2023-04-19T22:27:26.800Z,61.69
2023-04-19T22:30:29.522Z,60.65
2023-04-19T22:33:32.154Z,58.79
2023-04-19T22:36:34.791Z,58.48
2023-04-19T22:39:38.924Z,56.76
2023-04-19T22:42:41.567Z,54.69
2023-04-19T22:45:47.604Z,55.38
2023-04-19T22:48:50.535Z,56.24
2023-04-19T22:51:54.441Z,56.79
2023-04-19T22:54:58.491Z,57.88
2023-04-19T22:58:01.129Z,58.57
2023-04-19T23:01:04.088Z,61.14
2023-04-19T23:04:06.835Z,65.79
2023-04-19T23:07:09.541Z,69.81
2023-04-19T23:10:14.207Z,77.69
2023-04-19T23:13:17.026Z,80.58
2023-04-19T23:16:19.861Z,79.90
2023-04-19T23:19:23.283Z,83.66
2023-04-19T23:22:25.951Z,84.47
2023-04-19T23:25:29.925Z,84.38
2023-04-19T23:28:32.565Z,84.42
2023-04-19T23:31:35.260Z,85.37
2023-04-19T23:34:37.900Z,85.83
2023-04-19T23:37:40.970Z,88.67
2023-04-19T23:40:45.023Z,82.52
2023-04-19T23:43:47.700Z,80.48
2023-04-19T23:46:50.355Z,80.79
2023-04-19T23:49:53.020Z,81.21
2023-04-19T23:52:55.650Z,77.37
2023-04-19T23:55:59.630Z,76.64
2023-04-19T23:59:02.319Z,78.23
